createdAt,value
2018-11-21T00:02:21.458Z,2.20
2018-11-21T00:04:50.678Z,2.20
2018-11-21T00:07:19.852Z,2.20
2018-11-21T00:09:48.905Z,2.20
2018-11-21T00:12:18.043Z,2.20
2018-11-21T00:14:47.126Z,2.20
2018-11-21T00:17:16.239Z,2.20
2018-11-21T00:19:45.266Z,2.20
2018-11-21T00:22:14.363Z,2.30
2018-11-21T00:24:43.571Z,2.30
2018-11-21T00:27:12.764Z,2.20
2018-11-21T00:29:41.980Z,2.20
2018-11-21T00:32:30.217Z,2.30
2018-11-21T00:34:59.312Z,2.30
2018-11-21T00:37:28.714Z,2.30
2018-11-21T00:39:57.846Z,2.30
2018-11-21T00:42:27.128Z,2.30
2018-11-21T00:44:56.174Z,2.30
2018-11-21T00:47:25.526Z,2.20
2018-11-21T00:49:54.591Z,2.20
2018-11-21T00:52:23.763Z,2.20
2018-11-21T00:54:52.862Z,2.20
2018-11-21T00:57:23.484Z,2.30
2018-11-21T00:59:51.182Z,2.30
2018-11-21T01:02:20.297Z,2.30
2018-11-21T01:04:49.592Z,2.40
2018-11-21T01:07:18.738Z,2.40
2018-11-21T01:09:48.012Z,2.40
2018-11-21T01:12:17.170Z,2.40
2018-11-21T01:14:46.528Z,2.30
2018-11-21T01:17:17.529Z,2.30
2018-11-21T01:19:46.568Z,2.30
2018-11-21T01:22:15.862Z,2.30
2018-11-21T01:24:44.970Z,2.30
2018-11-21T01:27:14.073Z,2.30
2018-11-21T01:29:43.528Z,2.20
2018-11-21T01:32:12.895Z,2.20
2018-11-21T01:34:42.039Z,2.20
2018-11-21T01:37:11.339Z,2.20
2018-11-21T01:39:40.465Z,2.20
2018-11-21T01:42:09.650Z,2.30
2018-11-21T01:44:38.826Z,2.40
2018-11-21T01:47:08.336Z,2.30
2018-11-21T01:49:37.649Z,2.40
2018-11-21T01:52:06.757Z,2.50
2018-11-21T01:54:36.121Z,2.40
2018-11-21T01:57:05.576Z,2.40
2018-11-21T01:59:34.729Z,2.40
2018-11-21T02:02:03.770Z,2.50
2018-11-21T02:04:32.946Z,2.40
2018-11-21T02:07:02.175Z,2.40
2018-11-21T02:09:31.279Z,2.40
2018-11-21T02:12:00.403Z,2.30
2018-11-21T02:14:29.557Z,2.30
2018-11-21T02:16:58.643Z,2.40
2018-11-21T02:19:27.801Z,2.40
2018-11-21T02:21:56.907Z,2.30
2018-11-21T02:24:26.141Z,2.40
2018-11-21T02:26:55.361Z,2.30
2018-11-21T02:29:24.537Z,2.20
2018-11-21T02:31:53.669Z,2.30
2018-11-21T02:34:23.070Z,2.30
2018-11-21T02:36:52.390Z,2.30
2018-11-21T02:39:21.535Z,2.30
2018-11-21T02:41:50.751Z,2.30
2018-11-21T02:44:20.071Z,2.30
2018-11-21T02:46:49.273Z,2.30
2018-11-21T02:49:18.405Z,2.30
2018-11-21T02:51:47.573Z,2.30
2018-11-21T02:54:16.693Z,2.30
2018-11-21T02:57:20.993Z,2.30
2018-11-21T02:59:54.376Z,2.30
2018-11-21T03:02:23.531Z,2.30
2018-11-21T03:04:52.898Z,2.30
2018-11-21T03:07:22.135Z,2.30
2018-11-21T03:09:51.503Z,2.40
2018-11-21T03:12:20.841Z,2.40
2018-11-21T03:14:49.947Z,2.40
2018-11-21T03:17:19.147Z,2.40
2018-11-21T03:19:48.236Z,2.40
2018-11-21T03:22:17.373Z,2.30
2018-11-21T03:24:46.947Z,2.40
2018-11-21T03:27:16.070Z,2.40
2018-11-21T03:29:45.377Z,2.40
2018-11-21T03:32:14.611Z,2.40
2018-11-21T03:34:43.878Z,2.50
2018-11-21T03:37:12.971Z,2.40
2018-11-21T03:39:42.098Z,2.40
2018-11-21T03:42:11.303Z,2.40
2018-11-21T03:44:40.481Z,2.40
2018-11-21T03:47:09.709Z,2.40
2018-11-21T03:49:38.746Z,2.30
2018-11-21T03:52:07.959Z,2.40
2018-11-21T03:54:37.122Z,2.40
2018-11-21T03:57:06.322Z,2.40
2018-11-21T03:59:35.487Z,2.40
2018-11-21T04:02:04.877Z,2.50
2018-11-21T04:04:33.972Z,2.40
2018-11-21T04:07:03.168Z,2.40
2018-11-21T04:09:32.401Z,2.40
2018-11-21T04:12:01.476Z,2.50
2018-11-21T04:14:30.696Z,2.50
2018-11-21T04:16:59.839Z,2.40
2018-11-21T04:19:29.009Z,2.50
2018-11-21T04:21:58.194Z,2.50
2018-11-21T04:24:27.296Z,2.50
2018-11-21T04:26:56.372Z,2.50
2018-11-21T04:29:25.642Z,2.50
2018-11-21T04:31:54.895Z,2.50
2018-11-21T04:34:24.014Z,2.50
2018-11-21T04:36:53.410Z,2.60
2018-11-21T04:39:22.490Z,2.60
2018-11-21T04:41:51.780Z,2.60
2018-11-21T04:44:20.993Z,2.50
2018-11-21T04:46:50.308Z,2.60
2018-11-21T04:49:19.361Z,2.60
2018-11-21T04:51:48.558Z,2.60
2018-11-21T04:54:17.839Z,2.70
2018-11-21T04:56:47.026Z,2.70
2018-11-21T04:59:16.111Z,2.70
2018-11-21T05:01:45.341Z,2.70
2018-11-21T05:04:14.415Z,2.70
2018-11-21T05:06:43.616Z,2.70
2018-11-21T05:09:13.121Z,2.70
2018-11-21T05:11:42.353Z,2.70
2018-11-21T05:14:11.795Z,2.80
2018-11-21T05:16:40.929Z,2.70
2018-11-21T05:19:10.044Z,2.80
2018-11-21T05:21:39.190Z,2.80
2018-11-21T05:24:08.339Z,2.80
2018-11-21T05:26:37.579Z,2.80
2018-11-21T05:29:06.604Z,2.80
2018-11-21T05:31:35.695Z,2.80
2018-11-21T05:34:04.746Z,2.90
2018-11-21T05:36:33.864Z,2.80
2018-11-21T05:39:02.881Z,2.70
2018-11-21T05:41:32.072Z,2.70
2018-11-21T05:44:01.143Z,2.70
2018-11-21T05:46:30.376Z,2.70
2018-11-21T05:48:59.557Z,2.70
2018-11-21T05:51:28.670Z,2.70
2018-11-21T05:53:57.812Z,2.70
2018-11-21T05:56:26.870Z,2.70
2018-11-21T05:58:55.966Z,2.70
2018-11-21T06:01:25.083Z,2.60
2018-11-21T06:03:54.254Z,2.70
2018-11-21T06:06:23.351Z,2.60
2018-11-21T06:08:52.419Z,2.70
2018-11-21T06:11:21.436Z,2.80
2018-11-21T06:13:50.485Z,2.70
2018-11-21T06:16:19.522Z,2.70
2018-11-21T06:18:48.668Z,2.60
2018-11-21T06:21:17.714Z,2.70
2018-11-21T06:23:46.726Z,2.70
2018-11-21T06:26:15.777Z,2.70
2018-11-21T06:28:44.834Z,2.60
2018-11-21T06:31:13.851Z,2.70
2018-11-21T06:33:42.876Z,2.60
2018-11-21T06:36:12.001Z,2.60
2018-11-21T06:38:41.125Z,2.70
2018-11-21T06:41:10.236Z,2.60
2018-11-21T06:43:39.344Z,2.60
2018-11-21T06:46:08.707Z,2.60
2018-11-21T06:48:37.784Z,2.60
2018-11-21T06:51:06.993Z,2.60
2018-11-21T06:53:36.509Z,2.50
2018-11-21T06:56:05.777Z,2.60
2018-11-21T06:58:35.239Z,2.60
2018-11-21T07:01:04.579Z,2.50
2018-11-21T07:03:34.211Z,2.60
2018-11-21T07:06:04.064Z,2.70
2018-11-21T07:08:33.720Z,2.60
2018-11-21T07:11:03.650Z,2.60
2018-11-21T07:13:33.029Z,2.60
2018-11-21T07:16:02.454Z,2.60
2018-11-21T07:18:32.005Z,2.60
2018-11-21T07:21:01.997Z,2.60
2018-11-21T07:23:31.845Z,2.60
2018-11-21T07:26:02.030Z,2.50
2018-11-21T07:28:33.171Z,2.50
2018-11-21T07:31:02.543Z,2.60
2018-11-21T07:33:32.268Z,2.50
2018-11-21T07:36:01.948Z,2.70
2018-11-21T07:38:31.677Z,2.50
2018-11-21T07:41:01.341Z,2.50
2018-11-21T07:43:31.094Z,2.50
2018-11-21T07:46:00.508Z,2.60
2018-11-21T07:48:29.728Z,2.60
2018-11-21T07:51:02.495Z,2.60
2018-11-21T07:53:29.318Z,2.70
2018-11-21T07:55:59.339Z,2.70
2018-11-21T07:58:29.218Z,2.70
2018-11-21T08:01:05.151Z,2.60
2018-11-21T08:03:54.195Z,2.60
2018-11-21T08:06:42.743Z,2.60
2018-11-21T08:09:29.692Z,2.60
2018-11-21T08:12:25.284Z,2.70
2018-11-21T08:15:19.084Z,2.70
2018-11-21T08:18:00.783Z,2.60
2018-11-21T08:21:01.277Z,2.70
2018-11-21T08:23:55.385Z,2.60
2018-11-21T08:26:47.629Z,2.70
2018-11-21T08:29:17.152Z,2.70
2018-11-21T08:31:46.771Z,2.80
2018-11-21T08:34:16.889Z,2.80
2018-11-21T08:36:46.907Z,2.80
2018-11-21T08:39:16.850Z,2.80
2018-11-21T08:41:49.803Z,2.90
2018-11-21T08:44:19.399Z,2.90
2018-11-21T08:46:50.153Z,2.90
2018-11-21T08:49:19.479Z,2.90
2018-11-21T08:51:49.515Z,2.90
2018-11-21T08:54:22.087Z,2.90
2018-11-21T08:56:49.631Z,2.90
2018-11-21T08:59:19.357Z,2.90
2018-11-21T09:01:49.183Z,2.90
2018-11-21T09:04:18.691Z,2.90
2018-11-21T09:06:48.601Z,2.90
2018-11-21T09:09:18.145Z,2.90
2018-11-21T09:11:50.181Z,3.00
2018-11-21T09:14:19.630Z,3.00
2018-11-21T09:16:52.228Z,3.10
2018-11-21T09:19:21.913Z,3.10
2018-11-21T09:21:51.816Z,3.10
2018-11-21T09:24:21.571Z,3.10
2018-11-21T09:26:51.443Z,3.10
2018-11-21T09:29:21.004Z,3.20
2018-11-21T09:31:50.465Z,3.20
2018-11-21T09:34:19.826Z,3.20
2018-11-21T09:36:49.421Z,3.10
2018-11-21T09:39:19.186Z,3.20
2018-11-21T09:41:49.067Z,3.10
2018-11-21T09:44:18.787Z,3.10
2018-11-21T09:46:48.707Z,3.10
2018-11-21T09:49:18.137Z,3.10
2018-11-21T09:51:48.027Z,3.10
2018-11-21T09:54:17.748Z,3.20
2018-11-21T09:56:46.999Z,3.20
2018-11-21T09:59:16.846Z,3.20
2018-11-21T10:02:23.216Z,3.20
2018-11-21T10:04:52.555Z,3.10
2018-11-21T10:07:21.967Z,3.10
2018-11-21T10:09:52.351Z,3.20
2018-11-21T10:12:21.857Z,3.20
2018-11-21T10:14:51.597Z,3.20
2018-11-21T10:17:21.363Z,3.20
2018-11-21T10:19:50.822Z,3.20
2018-11-21T10:22:20.052Z,3.30
2018-11-21T10:24:49.561Z,3.30
2018-11-21T10:27:19.328Z,3.20
2018-11-21T10:29:48.903Z,3.20
2018-11-21T10:32:18.259Z,3.20
2018-11-21T10:34:47.613Z,3.20
2018-11-21T10:37:17.000Z,3.20
2018-11-21T10:39:46.733Z,3.20
2018-11-21T10:42:16.197Z,3.30
2018-11-21T10:44:45.723Z,3.20
2018-11-21T10:47:15.407Z,3.30
2018-11-21T10:49:44.500Z,3.30
2018-11-21T10:52:14.357Z,3.30
2018-11-21T10:54:44.091Z,3.40
2018-11-21T10:57:17.459Z,3.40
2018-11-21T10:59:48.960Z,3.40
2018-11-21T11:02:24.193Z,3.50
2018-11-21T11:05:18.741Z,3.50
2018-11-21T11:08:20.750Z,3.50
2018-11-21T11:11:07.417Z,3.40
2018-11-21T11:14:14.300Z,3.50
2018-11-21T11:17:00.678Z,3.50
2018-11-21T11:19:49.315Z,3.50
2018-11-21T11:22:36.829Z,3.50
2018-11-21T11:25:25.764Z,3.40
2018-11-21T11:28:14.578Z,3.40
2018-11-21T11:30:55.737Z,3.40
2018-11-21T11:33:49.585Z,3.50
2018-11-21T11:36:56.927Z,3.30
2018-11-21T11:39:45.667Z,3.50
2018-11-21T11:42:34.085Z,3.40
2018-11-21T11:45:22.728Z,3.40
2018-11-21T11:48:10.057Z,3.30
2018-11-21T11:50:57.145Z,3.30
2018-11-21T11:53:44.621Z,3.40
2018-11-21T11:56:33.665Z,3.40
2018-11-21T11:59:23.371Z,3.50
2018-11-21T12:02:05.165Z,3.50
2018-11-21T12:04:53.620Z,3.50
2018-11-21T12:07:40.825Z,3.50
2018-11-21T12:10:23.578Z,3.50
2018-11-21T12:13:17.402Z,3.40
2018-11-21T12:16:04.463Z,3.50
2018-11-21T12:18:59.399Z,3.30
2018-11-21T12:21:56.989Z,3.40
2018-11-21T12:24:54.112Z,3.40
2018-11-21T12:27:42.188Z,3.40
2018-11-21T12:30:29.448Z,3.20
2018-11-21T12:33:17.025Z,3.30
2018-11-21T12:36:04.470Z,3.30
2018-11-21T12:38:53.573Z,3.40
2018-11-21T12:41:40.359Z,3.50
2018-11-21T12:44:21.306Z,3.40
2018-11-21T12:47:25.233Z,3.40
2018-11-21T12:50:16.953Z,3.30
2018-11-21T12:53:04.402Z,3.30
2018-11-21T12:55:43.959Z,3.20
2018-11-21T12:58:30.853Z,3.20
